createdAt,value
2022-09-12T00:00:14.260Z,10.00
2022-09-12T00:02:15.810Z,12.50
2022-09-12T00:04:17.508Z,10.87
2022-09-12T00:06:23.330Z,10.97
2022-09-12T00:08:24.950Z,11.00
2022-09-12T00:10:26.919Z,11.73
2022-09-12T00:12:28.434Z,10.20
2022-09-12T00:14:30.038Z,10.83
2022-09-12T00:16:35.676Z,10.97
2022-09-12T00:18:37.249Z,10.83
2022-09-12T00:20:41.874Z,12.10
2022-09-12T00:22:43.456Z,11.97
2022-09-12T00:24:45.204Z,11.43
2022-09-12T00:26:47.142Z,9.90
2022-09-12T00:28:48.682Z,10.90
2022-09-12T00:30:50.571Z,10.20
2022-09-12T00:32:53.371Z,11.00
2022-09-12T00:34:54.890Z,10.37
2022-09-12T00:36:56.339Z,10.23
2022-09-12T00:38:58.122Z,9.90
2022-09-12T00:40:59.655Z,10.20
2022-09-12T00:43:01.204Z,9.83
2022-09-12T00:45:02.872Z,10.57
2022-09-12T00:47:10.421Z,9.07
2022-09-12T00:49:18.637Z,11.40
2022-09-12T00:51:20.682Z,9.90
2022-09-12T00:53:22.507Z,10.00
2022-09-12T00:55:26.455Z,9.10
2022-09-12T00:57:32.157Z,10.53
2022-09-12T00:59:39.251Z,8.77
2022-09-12T01:01:42.903Z,9.97
2022-09-12T01:03:44.826Z,10.97
2022-09-12T01:05:58.944Z,10.27
2022-09-12T01:08:02.261Z,9.77
2022-09-12T01:10:05.015Z,9.20
2022-09-12T01:12:06.652Z,8.67
2022-09-12T01:14:08.925Z,9.00
2022-09-12T01:16:10.520Z,9.27
2022-09-12T01:18:20.668Z,10.03
2022-09-12T01:20:41.363Z,11.10
2022-09-12T01:23:11.625Z,9.40
2022-09-12T01:25:27.372Z,8.77
2022-09-12T01:27:46.050Z,9.30
2022-09-12T01:30:24.187Z,9.00
2022-09-12T01:32:40.580Z,8.90
2022-09-12T01:34:49.278Z,8.77
2022-09-12T01:37:04.585Z,9.90
2022-09-12T01:39:16.007Z,8.60
2022-09-12T01:41:25.963Z,9.90
2022-09-12T01:43:34.400Z,10.43
2022-09-12T01:45:44.462Z,9.77
2022-09-12T01:47:51.845Z,10.10
2022-09-12T01:50:00.452Z,9.60
2022-09-12T01:52:09.220Z,9.43
2022-09-12T01:54:16.594Z,9.33
2022-09-12T01:56:21.948Z,8.30
2022-09-12T01:58:28.596Z,8.10
2022-09-12T02:00:32.655Z,8.23
2022-09-12T02:02:39.051Z,8.07
2022-09-12T02:04:48.634Z,8.50
2022-09-12T02:06:54.582Z,11.30
2022-09-12T02:09:00.371Z,10.57
2022-09-12T02:11:06.937Z,10.40
2022-09-12T02:13:14.885Z,12.70
2022-09-12T02:15:20.563Z,9.87
2022-09-12T02:17:24.464Z,9.43
2022-09-12T02:19:31.308Z,9.43
2022-09-12T02:21:38.469Z,9.57
2022-09-12T02:23:45.777Z,8.80
2022-09-12T02:25:50.661Z,10.00
2022-09-12T02:27:57.380Z,11.30
2022-09-12T02:29:59.859Z,9.57
2022-09-12T02:32:05.985Z,10.23
2022-09-12T02:34:11.944Z,10.37
2022-09-12T02:36:23.280Z,10.20
2022-09-12T02:38:30.915Z,9.90
2022-09-12T02:40:34.673Z,9.60
2022-09-12T02:42:36.829Z,9.73
2022-09-12T02:44:38.341Z,8.90
2022-09-12T02:46:44.324Z,10.80
2022-09-12T02:48:45.918Z,12.23
2022-09-12T02:50:47.625Z,9.63
2022-09-12T02:52:50.286Z,9.00
2022-09-12T02:54:55.052Z,10.43
2022-09-12T02:56:56.638Z,10.60
2022-09-12T02:59:02.504Z,9.90
2022-09-12T03:01:14.381Z,9.60
2022-09-12T03:03:47.473Z,9.63
2022-09-12T03:05:57.393Z,11.00
2022-09-12T03:08:22.349Z,10.30
2022-09-12T03:10:32.946Z,10.80
2022-09-12T03:12:47.211Z,10.30
2022-09-12T03:15:04.950Z,10.20
2022-09-12T03:17:14.398Z,10.67
2022-09-12T03:19:25.315Z,10.70
2022-09-12T03:21:33.142Z,11.60
2022-09-12T03:23:39.460Z,8.80
2022-09-12T03:25:48.659Z,10.67
2022-09-12T03:27:57.255Z,8.83
2022-09-12T03:30:00.074Z,8.70
2022-09-12T03:32:01.992Z,9.40
2022-09-12T03:34:03.668Z,8.20
2022-09-12T03:36:05.506Z,9.47
2022-09-12T03:38:07.058Z,9.27
2022-09-12T03:40:10.460Z,8.97
2022-09-12T03:42:13.377Z,9.07
2022-09-12T03:44:15.301Z,10.60
2022-09-12T03:46:16.937Z,9.40
2022-09-12T03:48:18.434Z,10.70
2022-09-12T03:50:19.981Z,9.63
2022-09-12T03:52:21.509Z,11.03
2022-09-12T03:54:23.372Z,10.03
2022-09-12T03:56:24.862Z,9.20
2022-09-12T03:58:30.826Z,10.23
2022-09-12T04:00:32.318Z,8.40
2022-09-12T04:02:33.851Z,9.60
2022-09-12T04:04:35.621Z,9.07
2022-09-12T04:06:37.117Z,10.17
2022-09-12T04:08:38.975Z,9.10
2022-09-12T04:10:40.557Z,10.00
2022-09-12T04:12:42.326Z,10.80
2022-09-12T04:14:45.176Z,10.00
2022-09-12T04:16:46.755Z,8.90
2022-09-12T04:18:48.505Z,11.47
2022-09-12T04:20:50.102Z,9.23
2022-09-12T04:22:51.838Z,8.90
2022-09-12T04:24:53.474Z,9.10
2022-09-12T04:26:55.495Z,9.10
2022-09-12T04:28:57.303Z,9.43
2022-09-12T04:31:04.293Z,8.90
2022-09-12T04:33:08.453Z,9.27
2022-09-12T04:35:10.070Z,8.30
2022-09-12T04:37:11.555Z,8.00
2022-09-12T04:39:13.063Z,8.60
2022-09-12T04:41:16.200Z,9.67
2022-09-12T04:43:17.690Z,8.23
2022-09-12T04:45:19.209Z,8.30
2022-09-12T04:47:22.093Z,8.20
2022-09-12T04:49:23.589Z,8.97
2022-09-12T04:51:27.980Z,9.87
2022-09-12T04:53:29.632Z,8.83
2022-09-12T04:55:33.989Z,8.60
2022-09-12T04:57:35.876Z,9.03
2022-09-12T04:59:38.646Z,10.27
2022-09-12T05:01:40.410Z,9.40
2022-09-12T05:03:44.346Z,11.00
2022-09-12T05:05:45.879Z,11.00
2022-09-12T05:07:47.418Z,11.00
2022-09-12T05:09:48.939Z,9.90
2022-09-12T05:12:06.056Z,11.30
2022-09-12T05:14:07.604Z,9.47
2022-09-12T05:16:11.656Z,9.17
2022-09-12T05:18:13.265Z,9.60
2022-09-12T05:20:16.265Z,9.37
2022-09-12T05:22:17.779Z,9.33
2022-09-12T05:24:19.412Z,9.47
2022-09-12T05:26:21.447Z,11.10
2022-09-12T05:28:24.113Z,11.57
2022-09-12T05:30:25.706Z,11.77
2022-09-12T05:32:31.151Z,10.47
2022-09-12T05:34:32.653Z,10.03
2022-09-12T05:36:36.124Z,10.00
2022-09-12T05:38:37.805Z,10.57
2022-09-12T05:40:39.320Z,10.50
2022-09-12T05:42:41.086Z,10.13
2022-09-12T05:44:42.581Z,9.93
2022-09-12T05:46:45.270Z,11.03
2022-09-12T05:48:48.686Z,10.93
2022-09-12T05:50:51.330Z,11.93
2022-09-12T05:52:54.260Z,11.37
2022-09-12T05:54:55.805Z,10.77
2022-09-12T05:56:57.333Z,10.70
2022-09-12T05:59:00.620Z,12.90
2022-09-12T06:01:04.229Z,11.73
2022-09-12T06:03:05.930Z,10.93
2022-09-12T06:05:07.892Z,11.00
2022-09-12T06:07:09.438Z,12.50
2022-09-12T06:09:13.862Z,6.57
2022-09-12T06:11:17.882Z,10.17
2022-09-12T06:13:19.625Z,9.90
2022-09-12T06:15:21.145Z,10.53
2022-09-12T06:17:22.716Z,9.73
2022-09-12T06:19:24.244Z,10.70
2022-09-12T06:21:26.628Z,10.40
2022-09-12T06:23:28.157Z,10.47
2022-09-12T06:25:31.048Z,11.90
2022-09-12T06:27:32.542Z,9.90
2022-09-12T06:29:34.094Z,10.10
2022-09-12T06:31:36.990Z,11.10
2022-09-12T06:33:40.572Z,10.70
2022-09-12T06:35:42.334Z,11.10
2022-09-12T06:37:44.306Z,12.67
2022-09-12T06:39:46.958Z,11.27
2022-09-12T06:41:51.205Z,11.30
2022-09-12T06:43:53.580Z,11.30
2022-09-12T06:45:55.202Z,11.03
2022-09-12T06:47:56.741Z,12.10
2022-09-12T06:49:58.349Z,10.80
2022-09-12T06:51:59.825Z,11.80
2022-09-12T06:54:01.959Z,11.53
2022-09-12T06:56:06.306Z,11.77
2022-09-12T06:58:09.331Z,11.07
2022-09-12T07:00:12.116Z,10.07
2022-09-12T07:02:13.716Z,10.83
2022-09-12T07:04:15.284Z,9.87
2022-09-12T07:06:18.869Z,11.60
2022-09-12T07:08:20.508Z,10.37
2022-09-12T07:10:22.492Z,11.67
2022-09-12T07:12:24.065Z,11.80
2022-09-12T07:14:27.212Z,12.53
2022-09-12T07:16:29.219Z,12.03
2022-09-12T07:18:31.684Z,11.30
2022-09-12T07:20:33.340Z,12.27
2022-09-12T07:22:34.921Z,11.80
2022-09-12T07:24:36.483Z,12.03
2022-09-12T07:26:39.293Z,10.83
2022-09-12T07:28:40.947Z,12.97
2022-09-12T07:30:43.907Z,13.43
2022-09-12T07:32:46.735Z,12.47
2022-09-12T07:34:48.235Z,12.07
2022-09-12T07:36:49.716Z,12.73
2022-09-12T07:38:57.221Z,13.03
2022-09-12T07:40:59.247Z,13.23
2022-09-12T07:43:00.971Z,12.57
2022-09-12T07:45:02.713Z,13.50
2022-09-12T07:47:06.042Z,11.50
2022-09-12T07:49:08.553Z,13.60
2022-09-12T07:51:11.884Z,13.43
2022-09-12T07:53:13.539Z,13.00
2022-09-12T07:55:15.294Z,14.33
2022-09-12T07:57:16.851Z,13.57
2022-09-12T07:59:30.205Z,13.20
2022-09-12T08:01:42.934Z,12.67
2022-09-12T08:03:47.911Z,13.40
2022-09-12T08:05:49.499Z,14.77
2022-09-12T08:07:53.634Z,13.93
2022-09-12T08:09:58.879Z,13.57
2022-09-12T08:12:00.529Z,12.80
2022-09-12T08:14:02.238Z,13.83
2022-09-12T08:16:05.765Z,13.63
2022-09-12T08:18:07.300Z,14.93
2022-09-12T08:20:10.412Z,13.60
2022-09-12T08:22:12.094Z,14.90
2022-09-12T08:24:14.084Z,12.40
2022-09-12T08:26:15.618Z,13.97
2022-09-12T08:28:17.260Z,14.30
2022-09-12T08:30:18.772Z,15.67
2022-09-12T08:32:20.323Z,15.00
2022-09-12T08:34:21.864Z,17.60
2022-09-12T08:36:26.983Z,18.57
2022-09-12T08:38:29.695Z,18.70
2022-09-12T08:40:33.142Z,16.57
2022-09-12T08:42:48.573Z,15.30
2022-09-12T08:45:05.116Z,15.10
2022-09-12T08:47:28.747Z,14.07
2022-09-12T08:49:33.526Z,15.03
2022-09-12T08:51:36.993Z,14.70
2022-09-12T08:53:39.347Z,19.20
2022-09-12T08:55:43.660Z,17.57
2022-09-12T08:57:45.698Z,17.37
2022-09-12T08:59:47.254Z,15.10
2022-09-12T09:01:52.230Z,15.90
2022-09-12T09:04:09.184Z,15.80
2022-09-12T09:06:21.487Z,14.67
2022-09-12T09:08:42.676Z,15.07
2022-09-12T09:10:49.455Z,14.50
2022-09-12T09:12:56.937Z,15.03
2022-09-12T09:15:13.014Z,13.10
2022-09-12T09:17:19.884Z,16.10
2022-09-12T09:19:25.786Z,13.57
2022-09-12T09:21:32.368Z,14.33
2022-09-12T09:23:40.786Z,16.10
2022-09-12T09:25:50.717Z,14.30
2022-09-12T09:27:58.256Z,13.00
2022-09-12T09:30:00.862Z,14.00
2022-09-12T09:32:10.418Z,13.60
2022-09-12T09:34:16.718Z,15.43
2022-09-12T09:36:21.763Z,13.43
2022-09-12T09:38:28.993Z,11.93
2022-09-12T09:40:44.336Z,11.87
2022-09-12T09:42:56.469Z,15.30
2022-09-12T09:45:02.862Z,14.93
2022-09-12T09:47:05.020Z,12.40
2022-09-12T09:49:10.681Z,8.43
2022-09-12T09:51:15.135Z,6.97
2022-09-12T09:53:28.904Z,14.90
2022-09-12T09:55:38.491Z,12.80
2022-09-12T09:57:42.042Z,12.00
2022-09-12T09:59:46.424Z,11.50
2022-09-12T10:01:51.424Z,14.10
2022-09-12T10:03:54.452Z,10.83
2022-09-12T10:06:00.037Z,11.17
2022-09-12T10:08:10.066Z,12.47
2022-09-12T10:10:16.892Z,11.67
2022-09-12T10:12:27.903Z,11.13
2022-09-12T10:14:38.651Z,9.90
2022-09-12T10:16:50.047Z,10.93
2022-09-12T10:18:53.155Z,11.20
2022-09-12T10:20:54.722Z,8.93
2022-09-12T10:22:56.565Z,9.50
2022-09-12T10:25:00.607Z,8.47
2022-09-12T10:27:09.474Z,8.53
2022-09-12T10:29:17.623Z,7.80
2022-09-12T10:31:26.442Z,9.03
2022-09-12T10:33:29.323Z,7.70
2022-09-12T10:35:42.482Z,8.50
2022-09-12T10:37:53.189Z,7.50
2022-09-12T10:39:57.050Z,8.20
2022-09-12T10:41:58.869Z,7.30
2022-09-12T10:44:07.286Z,6.80
2022-09-12T10:46:28.405Z,7.90
2022-09-12T10:48:31.815Z,7.20
2022-09-12T10:50:39.332Z,7.17
2022-09-12T10:52:40.890Z,7.50
2022-09-12T10:54:42.860Z,7.43
2022-09-12T10:56:53.359Z,6.83
2022-09-12T10:59:18.091Z,6.50
2022-09-12T11:01:37.200Z,7.53
2022-09-12T11:03:59.935Z,6.97
2022-09-12T11:06:01.943Z,6.40
2022-09-12T11:08:16.398Z,5.87
2022-09-12T11:10:37.359Z,5.00
2022-09-12T11:12:49.196Z,5.60
2022-09-12T11:15:03.297Z,5.93
2022-09-12T11:17:19.446Z,6.50
2022-09-12T11:19:56.712Z,5.80
2022-09-12T11:22:10.388Z,5.83
2022-09-12T11:24:56.420Z,5.33
2022-09-12T11:27:10.685Z,5.60
2022-09-12T11:29:20.890Z,6.07
2022-09-12T11:31:39.313Z,5.70
2022-09-12T11:33:44.934Z,5.00
2022-09-12T11:35:54.443Z,5.47
2022-09-12T11:38:14.214Z,5.40
2022-09-12T11:40:29.372Z,5.97
2022-09-12T11:42:36.707Z,5.30
2022-09-12T11:44:43.285Z,5.97
2022-09-12T11:46:48.744Z,5.10
2022-09-12T11:49:01.092Z,4.60
2022-09-12T11:51:07.496Z,4.87
2022-09-12T11:53:16.908Z,5.27
2022-09-12T11:55:22.876Z,6.43
2022-09-12T11:57:33.785Z,5.60
2022-09-12T11:59:44.442Z,5.20
2022-09-12T12:01:51.452Z,5.03
2022-09-12T12:03:53.079Z,5.47
2022-09-12T12:06:01.249Z,5.00
2022-09-12T12:08:06.698Z,4.53
2022-09-12T12:10:23.199Z,5.43
2022-09-12T12:12:28.747Z,4.57
2022-09-12T12:14:37.776Z,5.00
2022-09-12T12:16:40.895Z,4.70
2022-09-12T12:18:44.447Z,4.87
2022-09-12T12:20:46.723Z,4.80
2022-09-12T12:22:53.652Z,4.87
2022-09-12T12:25:05.950Z,4.93
2022-09-12T12:27:25.170Z,4.97
2022-09-12T12:29:42.996Z,5.13
2022-09-12T12:32:19.487Z,4.10
2022-09-12T12:34:28.607Z,4.23
2022-09-12T12:36:41.408Z,3.90
2022-09-12T12:38:44.655Z,3.47
2022-09-12T12:40:48.217Z,5.20
2022-09-12T12:43:04.823Z,4.30
2022-09-12T12:45:49.772Z,4.27
2022-09-12T12:47:53.608Z,4.37
2022-09-12T12:49:59.342Z,4.80
2022-09-12T12:52:02.104Z,4.43
2022-09-12T12:54:26.648Z,3.60
2022-09-12T12:56:40.234Z,2.80
2022-09-12T12:58:42.827Z,3.20
2022-09-12T13:00:46.378Z,3.10
2022-09-12T13:02:52.803Z,4.13
2022-09-12T13:04:56.083Z,3.37
2022-09-12T13:07:07.207Z,3.60
2022-09-12T13:09:25.785Z,3.07
2022-09-12T13:11:32.667Z,3.50
2022-09-12T13:13:38.183Z,3.87
2022-09-12T13:15:51.203Z,4.27
2022-09-12T13:17:52.994Z,3.60
2022-09-12T13:20:26.101Z,4.00
2022-09-12T13:22:25.418Z,4.80
2022-09-12T13:24:28.572Z,4.30
2022-09-12T13:26:34.487Z,3.77
2022-09-12T13:28:36.046Z,3.37
2022-09-12T13:30:40.809Z,3.97
2022-09-12T13:32:43.502Z,3.57
2022-09-12T13:35:01.006Z,3.60
2022-09-12T13:37:26.065Z,3.63
2022-09-12T13:39:35.789Z,3.37
2022-09-12T13:42:03.948Z,2.67
2022-09-12T13:44:10.002Z,3.53
2022-09-12T13:46:15.891Z,4.10
2022-09-12T13:48:21.574Z,3.77
2022-09-12T13:50:25.299Z,3.87
2022-09-12T13:52:31.844Z,3.50
2022-09-12T13:54:38.125Z,3.90
2022-09-12T13:56:47.542Z,3.20
2022-09-12T13:58:53.922Z,3.73
2022-09-12T14:01:07.505Z,3.70
2022-09-12T14:03:26.839Z,3.73
2022-09-12T14:05:28.400Z,3.87
2022-09-12T14:07:31.942Z,3.47
2022-09-12T14:09:39.987Z,3.40
2022-09-12T14:11:41.988Z,3.60
2022-09-12T14:13:43.680Z,3.43
2022-09-12T14:15:49.005Z,2.83
2022-09-12T14:17:52.964Z,3.20
2022-09-12T14:19:54.617Z,3.40
2022-09-12T14:21:56.892Z,3.30
2022-09-12T14:23:58.842Z,2.60
2022-09-12T14:26:04.865Z,3.10
2022-09-12T14:28:06.557Z,2.83
2022-09-12T14:30:21.413Z,3.43
2022-09-12T14:32:24.719Z,3.00
2022-09-12T14:34:26.209Z,2.80
2022-09-12T14:36:32.656Z,3.33
2022-09-12T14:38:37.639Z,3.10
2022-09-12T14:40:44.751Z,2.90
2022-09-12T14:42:49.964Z,3.60
2022-09-12T14:44:56.454Z,3.23
2022-09-12T14:47:10.193Z,3.00
2022-09-12T14:49:16.990Z,3.40
2022-09-12T14:51:22.361Z,2.93
2022-09-12T14:53:30.452Z,3.37
2022-09-12T14:55:34.258Z,3.30
2022-09-12T14:57:38.343Z,3.40
2022-09-12T14:59:41.310Z,3.27
2022-09-12T15:01:42.976Z,3.30
2022-09-12T15:03:50.445Z,3.60
2022-09-12T15:05:52.217Z,2.80
2022-09-12T15:08:01.261Z,3.40
2022-09-12T15:10:05.360Z,2.47
2022-09-12T15:12:09.409Z,2.60
2022-09-12T15:14:13.622Z,2.50
2022-09-12T15:16:16.686Z,2.80
2022-09-12T15:18:19.269Z,2.57
2022-09-12T15:20:20.912Z,2.70
2022-09-12T15:22:24.384Z,2.67
2022-09-12T15:24:26.018Z,4.00
2022-09-12T15:26:28.887Z,3.17
2022-09-12T15:28:31.466Z,3.40
2022-09-12T15:30:32.970Z,3.17
2022-09-12T15:32:37.225Z,3.23
2022-09-12T15:34:38.717Z,3.20
2022-09-12T15:36:40.249Z,3.20
2022-09-12T15:38:42.799Z,3.57
2022-09-12T15:40:44.440Z,3.37
2022-09-12T15:42:45.982Z,3.23
2022-09-12T15:44:47.515Z,3.27
2022-09-12T15:46:49.265Z,3.10
2022-09-12T15:48:52.175Z,3.20
2022-09-12T15:50:53.691Z,3.20
2022-09-12T15:52:55.572Z,3.03
2022-09-12T15:54:57.447Z,3.07
2022-09-12T15:56:59.083Z,3.23
2022-09-12T15:59:00.632Z,2.80
2022-09-12T16:01:02.278Z,3.33
2022-09-12T16:03:04.444Z,3.10
2022-09-12T16:05:16.259Z,2.90
2022-09-12T16:07:17.958Z,3.63
2022-09-12T16:09:19.774Z,3.07
2022-09-12T16:11:23.899Z,3.27
2022-09-12T16:13:26.363Z,3.53
2022-09-12T16:15:27.934Z,3.40
2022-09-12T16:17:29.517Z,3.10
2022-09-12T16:19:31.367Z,2.97
2022-09-12T16:21:34.462Z,3.50
2022-09-12T16:23:36.336Z,3.70
2022-09-12T16:25:37.989Z,2.67
2022-09-12T16:27:39.741Z,3.00
2022-09-12T16:29:41.272Z,3.33
2022-09-12T16:31:42.864Z,3.53
2022-09-12T16:33:44.551Z,3.30
2022-09-12T16:35:46.234Z,4.80
2022-09-12T16:37:49.590Z,3.30
2022-09-12T16:39:51.170Z,2.80
2022-09-12T16:41:52.829Z,3.13
2022-09-12T16:43:55.224Z,2.90
2022-09-12T16:46:04.384Z,3.10
2022-09-12T16:48:06.104Z,3.03
2022-09-12T16:50:08.556Z,2.90
2022-09-12T16:52:10.781Z,3.10
2022-09-12T16:54:13.865Z,2.83
2022-09-12T16:56:15.548Z,3.60
2022-09-12T16:58:17.116Z,3.00
2022-09-12T17:00:18.875Z,3.07
2022-09-12T17:02:20.448Z,3.07
2022-09-12T17:04:23.703Z,3.53
2022-09-12T17:06:26.546Z,3.00
2022-09-12T17:08:28.208Z,3.00
2022-09-12T17:10:31.308Z,2.70
2022-09-12T17:12:33.017Z,4.10
2022-09-12T17:14:34.538Z,3.70
2022-09-12T17:16:38.154Z,3.20
2022-09-12T17:18:39.982Z,3.27
2022-09-12T17:20:41.480Z,3.07
2022-09-12T17:22:43.111Z,4.00
2022-09-12T17:24:44.673Z,3.60
2022-09-12T17:26:47.784Z,3.30
2022-09-12T17:28:49.609Z,3.70
2022-09-12T17:30:55.430Z,3.20
2022-09-12T17:32:56.994Z,2.90
2022-09-12T17:34:59.032Z,3.10
2022-09-12T17:37:00.850Z,2.70
2022-09-12T17:39:03.578Z,3.20
2022-09-12T17:41:06.778Z,3.30
2022-09-12T17:43:10.317Z,2.93
2022-09-12T17:45:17.727Z,2.83
2022-09-12T17:47:20.242Z,3.43
2022-09-12T17:49:21.858Z,3.60
2022-09-12T17:51:24.806Z,3.03
2022-09-12T17:53:26.801Z,3.33
2022-09-12T17:55:28.749Z,3.80
2022-09-12T17:57:30.329Z,3.40
2022-09-12T17:59:33.427Z,4.40
2022-09-12T18:01:35.496Z,3.63
2022-09-12T18:03:37.056Z,4.30
2022-09-12T18:05:45.921Z,4.50
2022-09-12T18:07:47.565Z,5.23
2022-09-12T18:09:50.630Z,6.27
2022-09-12T18:11:53.527Z,5.23
2022-09-12T18:13:55.134Z,4.83
2022-09-12T18:16:04.129Z,5.20
2022-09-12T18:18:06.209Z,5.47
2022-09-12T18:20:08.538Z,6.20
2022-09-12T18:22:10.069Z,7.17
2022-09-12T18:24:12.279Z,8.33
2022-09-12T18:26:14.947Z,5.80
2022-09-12T18:28:16.686Z,6.20
2022-09-12T18:30:21.614Z,5.67
2022-09-12T18:32:25.013Z,5.93
2022-09-12T18:34:26.957Z,5.60
2022-09-12T18:36:31.763Z,5.13
2022-09-12T18:38:33.341Z,4.70
2022-09-12T18:40:35.113Z,5.80
2022-09-12T18:42:36.662Z,5.80
2022-09-12T18:44:38.248Z,4.20
2022-09-12T18:46:40.208Z,4.53
2022-09-12T18:48:44.238Z,4.80
2022-09-12T18:50:45.970Z,5.13
2022-09-12T18:52:47.886Z,4.40
2022-09-12T18:54:49.511Z,4.73
2022-09-12T18:56:50.988Z,4.93
2022-09-12T18:58:55.099Z,5.00
2022-09-12T19:00:57.577Z,5.13
2022-09-12T19:02:59.259Z,4.23
2022-09-12T19:05:05.245Z,4.87
2022-09-12T19:07:06.892Z,4.90
2022-09-12T19:09:09.409Z,5.20
2022-09-12T19:11:11.344Z,4.67
2022-09-12T19:13:12.890Z,5.03
2022-09-12T19:15:14.512Z,4.53
2022-09-12T19:17:16.294Z,4.83
2022-09-12T19:19:18.056Z,4.83
2022-09-12T19:21:22.583Z,5.50
2022-09-12T19:23:25.047Z,4.63
2022-09-12T19:25:27.014Z,4.60
2022-09-12T19:27:28.835Z,5.00
2022-09-12T19:29:30.946Z,4.70
2022-09-12T19:31:33.084Z,4.93
2022-09-12T19:33:35.114Z,4.63
2022-09-12T19:35:37.068Z,5.87
2022-09-12T19:37:40.203Z,4.93
2022-09-12T19:39:41.867Z,7.43
2022-09-12T19:41:44.520Z,5.73
2022-09-12T19:43:46.452Z,4.90
2022-09-12T19:45:48.360Z,6.20
2022-09-12T19:47:49.950Z,5.67
2022-09-12T19:49:51.674Z,6.20
2022-09-12T19:51:53.605Z,5.20
2022-09-12T19:53:56.755Z,5.40
2022-09-12T19:55:59.632Z,5.37
2022-09-12T19:58:01.239Z,6.10
2022-09-12T20:00:03.975Z,5.70
2022-09-12T20:02:05.696Z,5.03
2022-09-12T20:04:07.278Z,5.77
2022-09-12T20:06:10.186Z,6.07
2022-09-12T20:08:11.866Z,5.80
2022-09-12T20:10:15.375Z,6.23
2022-09-12T20:12:16.934Z,6.13
2022-09-12T20:14:18.581Z,5.60
2022-09-12T20:16:23.116Z,6.30
2022-09-12T20:18:24.887Z,7.30
2022-09-12T20:20:26.534Z,6.50
2022-09-12T20:22:28.070Z,5.90
2022-09-12T20:24:30.281Z,5.73
2022-09-12T20:26:33.732Z,5.30
2022-09-12T20:28:35.463Z,5.60
2022-09-12T20:30:37.066Z,5.70
2022-09-12T20:32:38.609Z,5.80
2022-09-12T20:34:40.467Z,5.60
2022-09-12T20:36:42.189Z,5.40
2022-09-12T20:38:47.908Z,5.60
2022-09-12T20:40:49.454Z,5.60
2022-09-12T20:42:52.817Z,4.97
2022-09-12T20:44:54.388Z,5.63
2022-09-12T20:46:56.102Z,5.83
2022-09-12T20:48:58.052Z,5.97
2022-09-12T20:50:59.740Z,5.10
2022-09-12T20:53:01.324Z,5.30
2022-09-12T20:55:02.992Z,5.23
2022-09-12T20:57:04.594Z,5.00
2022-09-12T20:59:09.692Z,5.07
2022-09-12T21:01:12.144Z,6.00
2022-09-12T21:03:14.031Z,6.57
2022-09-12T21:05:16.179Z,5.70
2022-09-12T21:07:17.769Z,5.37
2022-09-12T21:09:19.308Z,5.47
2022-09-12T21:11:20.925Z,6.13
2022-09-12T21:13:22.469Z,6.43
2022-09-12T21:15:25.473Z,5.63
2022-09-12T21:17:26.973Z,5.57
2022-09-12T21:19:28.507Z,5.90
2022-09-12T21:21:31.642Z,5.60
2022-09-12T21:23:33.677Z,5.60
2022-09-12T21:25:35.182Z,5.10
2022-09-12T21:27:36.737Z,5.70
2022-09-12T21:29:38.451Z,5.53
2022-09-12T21:31:42.676Z,5.53
2022-09-12T21:33:44.224Z,5.70
2022-09-12T21:35:45.875Z,5.50
2022-09-12T21:37:47.482Z,4.60
2022-09-12T21:39:49.123Z,4.97
2022-09-12T21:41:50.673Z,4.60
2022-09-12T21:43:52.188Z,5.20
2022-09-12T21:45:57.418Z,5.60
2022-09-12T21:48:00.952Z,6.00
2022-09-12T21:50:02.457Z,4.90
2022-09-12T21:52:04.061Z,4.53
2022-09-12T21:54:05.838Z,5.03
2022-09-12T21:56:08.813Z,4.00
2022-09-12T21:58:10.519Z,4.37
2022-09-12T22:00:17.572Z,5.03
2022-09-12T22:02:19.524Z,4.73
2022-09-12T22:04:22.686Z,5.27
2022-09-12T22:06:24.163Z,4.47
2022-09-12T22:08:26.438Z,5.30
2022-09-12T22:10:29.320Z,4.70
2022-09-12T22:12:30.860Z,4.53
2022-09-12T22:14:32.328Z,4.40
2022-09-12T22:16:33.922Z,4.80
2022-09-12T22:18:36.512Z,5.10
2022-09-12T22:20:39.316Z,4.60
2022-09-12T22:22:43.681Z,4.47
2022-09-12T22:24:45.534Z,5.80
2022-09-12T22:26:47.392Z,5.60
2022-09-12T22:28:49.386Z,4.97
2022-09-12T22:30:52.273Z,4.97
2022-09-12T22:32:54.027Z,5.63
2022-09-12T22:34:55.655Z,5.30
2022-09-12T22:36:58.540Z,5.20
2022-09-12T22:39:00.312Z,5.00
2022-09-12T22:41:06.320Z,5.90
2022-09-12T22:43:07.812Z,5.37
2022-09-12T22:45:10.063Z,4.80
2022-09-12T22:47:11.615Z,5.40
2022-09-12T22:49:13.108Z,5.00
2022-09-12T22:51:14.625Z,5.37
2022-09-12T22:53:17.481Z,5.43
2022-09-12T22:55:19.016Z,5.33
2022-09-12T22:57:20.537Z,6.00
2022-09-12T22:59:22.025Z,5.30
2022-09-12T23:01:23.519Z,5.13
2022-09-12T23:03:25.090Z,5.30
2022-09-12T23:05:26.659Z,5.30
2022-09-12T23:07:28.273Z,5.40
2022-09-12T23:09:35.361Z,5.30
2022-09-12T23:11:37.282Z,5.80
2022-09-12T23:13:41.005Z,6.60
2022-09-12T23:15:42.515Z,6.00
2022-09-12T23:17:44.013Z,5.73
2022-09-12T23:19:45.677Z,6.30
2022-09-12T23:21:48.529Z,5.47
2022-09-12T23:23:50.700Z,6.10
2022-09-12T23:26:03.158Z,6.00
2022-09-12T23:28:04.631Z,5.80
2022-09-12T23:30:07.157Z,5.83
2022-09-12T23:32:08.687Z,6.70
2022-09-12T23:34:10.239Z,6.10
2022-09-12T23:36:13.204Z,6.43
2022-09-12T23:38:14.887Z,6.10
2022-09-12T23:40:16.459Z,7.07
2022-09-12T23:42:19.312Z,6.80
2022-09-12T23:44:20.804Z,7.43
2022-09-12T23:46:23.401Z,7.37
2022-09-12T23:48:25.526Z,6.30
2022-09-12T23:50:27.309Z,6.77
2022-09-12T23:52:30.138Z,5.87
2022-09-12T23:54:31.662Z,6.17
2022-09-12T23:56:33.130Z,6.47
2022-09-12T23:58:36.075Z,6.20
